Time;durP1;ratioP1;P1;durP2;ratioP2;P2;SDS_P1;SDS_P2;PMS_P1;PMS_P2;Temp;Humidity;BMP_temperature;BMP_pressure;BME280_temperature;BME280_humidity;BME280_pressure;Samples;Min_cycle;Max_cycle;Signal;HPM_P1;HPM_P2
2024/03/14 00:02:19;;;;;;;42.05;31.17;;;;;;;;;;5134190;27;20083;-60
2024/03/14 00:04:45;;;;;;;45.50;30.73;;;;;;;;;;5134767;27;20022;-60
2024/03/14 00:07:14;;;;;;;44.30;31.50;;;;;;;;;;5153638;27;20023;-60
2024/03/14 00:09:40;;;;;;;43.17;31.00;;;;;;;;;;5139104;27;20164;-60
2024/03/14 00:12:06;;;;;;;42.85;30.25;;;;;;;;;;5153612;27;20015;-60
2024/03/14 00:14:33;;;;;;;42.72;30.10;;;;;;;;;;5153208;27;20023;-59
2024/03/14 00:16:59;;;;;;;42.22;30.58;;;;;;;;;;5156922;27;20027;-60
2024/03/14 00:19:25;;;;;;;48.30;33.53;;;;;;;;;;5144344;27;20118;-60
2024/03/14 00:21:51;;;;;;;44.33;32.17;;;;;;;;;;5153148;27;20418;-60
2024/03/14 00:24:17;;;;;;;45.55;32.08;;;;;;;;;;5132586;27;20098;-60
2024/03/14 00:26:44;;;;;;;43.65;31.83;;;;;;;;;;5156411;27;20355;-60
2024/03/14 00:29:10;;;;;;;46.90;33.42;;;;;;;;;;5156987;27;20043;-60
2024/03/14 00:31:39;;;;;;;49.85;32.70;;;;;;;;;;5155335;27;20574;-60
2024/03/14 00:34:09;;;;;;;50.63;32.05;;;;;;;;;;5148150;27;20049;-60
2024/03/14 00:36:37;;;;;;;45.80;33.60;;;;;;;;;;5156832;27;20440;-60
2024/03/14 00:39:06;;;;;;;48.22;32.10;;;;;;;;;;5155837;27;20532;-59
2024/03/14 00:41:33;;;;;;;45.03;32.05;;;;;;;;;;5155940;27;20026;-60
2024/03/14 00:43:59;;;;;;;44.20;32.53;;;;;;;;;;5156737;27;20353;-60
2024/03/14 00:46:25;;;;;;;47.70;32.42;;;;;;;;;;5155554;27;20039;-60
2024/03/14 00:48:52;;;;;;;49.42;32.85;;;;;;;;;;5151778;27;20114;-60
2024/03/14 00:51:18;;;;;;;48.78;32.85;;;;;;;;;;5156379;27;20065;-60
2024/03/14 00:53:44;;;;;;;51.13;34.28;;;;;;;;;;5156352;27;20061;-60
2024/03/14 00:56:13;;;;;;;44.50;31.50;;;;;;;;;;5154641;27;20443;-60
2024/03/14 00:58:39;;;;;;;52.70;34.20;;;;;;;;;;5153484;27;20031;-59
2024/03/14 01:01:14;;;;;;;46.45;33.22;;;;;;;;;;5156383;27;20091;-59
2024/03/14 01:03:41;;;;;;;54.97;33.78;;;;;;;;;;5137093;27;20515;-60
2024/03/14 01:06:11;;;;;;;49.70;33.45;;;;;;;;;;5137539;27;20105;-60
2024/03/14 01:08:37;;;;;;;46.47;33.03;;;;;;;;;;5144015;27;20485;-60
2024/03/14 01:11:03;;;;;;;50.47;34.67;;;;;;;;;;5153779;27;20122;-61
2024/03/14 01:13:29;;;;;;;46.92;33.75;;;;;;;;;;5153741;27;20019;-60
2024/03/14 01:15:56;;;;;;;49.58;33.58;;;;;;;;;;5135808;27;20427;-61
2024/03/14 01:18:24;;;;;;;49.28;33.25;;;;;;;;;;5149638;27;20023;-60
2024/03/14 01:20:50;;;;;;;50.45;34.97;;;;;;;;;;5154461;27;20022;-60
2024/03/14 01:23:17;;;;;;;45.95;31.48;;;;;;;;;;5155910;27;20034;-61
2024/03/14 01:25:44;;;;;;;48.83;34.58;;;;;;;;;;5155503;27;20075;-61
2024/03/14 01:28:11;;;;;;;43.72;32.92;;;;;;;;;;5147138;27;20025;-61
2024/03/14 01:30:37;;;;;;;47.55;33.05;;;;;;;;;;5145530;27;20039;-61
2024/03/14 01:33:04;;;;;;;46.75;34.65;;;;;;;;;;5153892;27;20031;-61
2024/03/14 01:35:30;;;;;;;47.58;34.45;;;;;;;;;;5155774;27;20025;-61
2024/03/14 01:37:56;;;;;;;45.28;33.08;;;;;;;;;;5150353;27;20460;-60
2024/03/14 01:40:22;;;;;;;49.83;34.70;;;;;;;;;;5155478;27;20059;-61
2024/03/14 01:42:54;;;;;;;49.13;34.03;;;;;;;;;;5138103;27;20031;-61
2024/03/14 01:45:21;;;;;;;46.95;33.38;;;;;;;;;;5154634;27;20167;-61
2024/03/14 01:47:48;;;;;;;48.42;33.10;;;;;;;;;;5151644;27;20015;-60
2024/03/14 01:50:14;;;;;;;49.05;34.60;;;;;;;;;;5133567;27;20050;-59
2024/03/14 01:52:41;;;;;;;46.70;33.30;;;;;;;;;;5148268;27;20048;-62
2024/03/14 01:55:10;;;;;;;47.67;33.88;;;;;;;;;;5153977;27;20205;-61
2024/03/14 01:57:36;;;;;;;47.22;33.35;;;;;;;;;;5142237;27;20026;-61
2024/03/14 02:00:06;;;;;;;47.60;32.75;;;;;;;;;;5154791;27;20022;-61
2024/03/14 02:02:35;;;;;;;49.65;34.08;;;;;;;;;;5141308;27;20025;-61
2024/03/14 02:05:11;;;;;;;45.28;32.20;;;;;;;;;;5154941;27;20025;-61
2024/03/14 02:07:38;;;;;;;48.72;34.88;;;;;;;;;;5134543;27;20400;-60
2024/03/14 02:10:08;;;;;;;46.30;33.13;;;;;;;;;;5147208;27;20035;-61
2024/03/14 02:12:34;;;;;;;45.15;31.65;;;;;;;;;;5140569;27;20455;-61
2024/03/14 02:15:02;;;;;;;49.78;34.80;;;;;;;;;;5154579;27;20031;-60
2024/03/14 02:17:31;;;;;;;42.75;31.67;;;;;;;;;;5153677;27;20029;-61
2024/03/14 02:19:57;;;;;;;52.28;34.42;;;;;;;;;;5143967;27;20472;-61
2024/03/14 02:22:24;;;;;;;51.10;34.00;;;;;;;;;;5154122;27;20026;-61
2024/03/14 02:24:53;;;;;;;54.75;34.10;;;;;;;;;;5135673;27;20019;-60
2024/03/14 02:27:23;;;;;;;49.05;33.25;;;;;;;;;;5152776;27;20029;-60
2024/03/14 02:29:49;;;;;;;44.08;31.33;;;;;;;;;;5153410;27;20122;-61
2024/03/14 02:32:15;;;;;;;49.70;30.95;;;;;;;;;;5133255;27;20125;-61
2024/03/14 02:34:41;;;;;;;48.30;32.60;;;;;;;;;;5135325;27;20030;-61
2024/03/14 02:37:07;;;;;;;44.38;31.67;;;;;;;;;;5146175;27;20400;-61
2024/03/14 02:39:34;;;;;;;48.53;31.50;;;;;;;;;;5129081;27;20023;-61
2024/03/14 02:42:00;;;;;;;46.40;31.25;;;;;;;;;;5149329;27;20389;-61
2024/03/14 02:44:26;;;;;;;43.58;31.65;;;;;;;;;;5147755;27;20027;-61
2024/03/14 02:46:52;;;;;;;48.28;33.20;;;;;;;;;;5140139;27;20479;-60
2024/03/14 02:49:20;;;;;;;51.25;32.55;;;;;;;;;;5154412;27;20037;-60
2024/03/14 02:51:46;;;;;;;44.35;30.90;;;;;;;;;;5153420;27;20023;-60
2024/03/14 02:54:15;;;;;;;50.58;33.53;;;;;;;;;;5135653;27;20106;-61
2024/03/14 02:56:41;;;;;;;51.90;33.88;;;;;;;;;;5154113;27;20159;-61
2024/03/14 02:59:09;;;;;;;46.97;31.33;;;;;;;;;;5135548;27;20023;-61
2024/03/14 03:01:37;;;;;;;44.53;32.78;;;;;;;;;;5154100;27;20109;-61
2024/03/14 03:04:03;;;;;;;45.70;32.17;;;;;;;;;;5153055;27;20018;-61
2024/03/14 03:06:30;;;;;;;42.58;30.42;;;;;;;;;;5139618;27;20384;-61
2024/03/14 03:08:58;;;;;;;42.67;30.27;;;;;;;;;;5139329;27;20098;-61
2024/03/14 03:14:46;;;;;;;44.72;31.55;;;;;;;;;;5146720;27;20117;-60
2024/03/14 03:17:16;;;;;;;47.58;32.47;;;;;;;;;;5151472;27;20503;-61
2024/03/14 03:19:43;;;;;;;46.35;31.85;;;;;;;;;;5153509;27;20099;-60
2024/03/14 03:22:09;;;;;;;47.92;32.05;;;;;;;;;;5135024;27;20023;-61
2024/03/14 03:24:47;;;;;;;46.70;31.17;;;;;;;;;;5139469;27;20071;-61
2024/03/14 03:27:13;;;;;;;49.00;32.10;;;;;;;;;;5135288;27;20033;-61
2024/03/14 03:29:40;;;;;;;41.83;32.00;;;;;;;;;;5134821;27;20026;-61
2024/03/14 03:32:06;;;;;;;44.10;32.25;;;;;;;;;;5152095;27;20469;-61
2024/03/14 03:34:32;;;;;;;47.30;32.17;;;;;;;;;;5136413;27;20083;-61
2024/03/14 03:36:59;;;;;;;43.08;31.13;;;;;;;;;;5123689;27;20015;-61
2024/03/14 03:39:25;;;;;;;46.30;31.83;;;;;;;;;;5133434;27;20467;-60
2024/03/14 03:41:52;;;;;;;43.47;29.45;;;;;;;;;;5133464;27;20095;-60
2024/03/14 03:44:20;;;;;;;46.72;31.77;;;;;;;;;;5146603;27;20034;-61
2024/03/14 03:46:46;;;;;;;43.63;31.27;;;;;;;;;;5133405;27;20106;-61
2024/03/14 03:49:12;;;;;;;45.17;30.77;;;;;;;;;;5146035;27;20026;-61
2024/03/14 03:51:39;;;;;;;42.35;29.65;;;;;;;;;;5150047;27;20027;-61
2024/03/14 03:54:05;;;;;;;42.33;30.35;;;;;;;;;;5155642;27;20071;-60
2024/03/14 03:56:31;;;;;;;44.13;32.85;;;;;;;;;;5152265;27;20464;-60
2024/03/14 03:58:58;;;;;;;42.40;31.33;;;;;;;;;;5154027;27;20010;-61
2024/03/14 04:01:24;;;;;;;43.25;31.52;;;;;;;;;;5152365;27;20030;-61
2024/03/14 04:03:52;;;;;;;43.83;31.48;;;;;;;;;;5154784;27;20435;-60
2024/03/14 04:06:18;;;;;;;39.28;29.33;;;;;;;;;;5133329;27;20038;-60
2024/03/14 04:08:47;;;;;;;42.53;30.83;;;;;;;;;;5154970;27;20099;-60
2024/03/14 04:11:15;;;;;;;44.70;31.92;;;;;;;;;;5146978;27;20041;-60
2024/03/14 04:13:41;;;;;;;43.33;30.85;;;;;;;;;;5151472;27;20019;-60
2024/03/14 04:16:07;;;;;;;46.47;30.38;;;;;;;;;;5148056;27;20038;-60
2024/03/14 04:18:34;;;;;;;46.10;30.38;;;;;;;;;;5143999;27;20018;-59
2024/03/14 04:21:02;;;;;;;43.10;30.48;;;;;;;;;;5143156;27;20064;-60
2024/03/14 04:23:28;;;;;;;40.20;30.75;;;;;;;;;;5136362;27;20354;-59
2024/03/14 04:25:57;;;;;;;45.70;30.50;;;;;;;;;;5136477;27;20074;-60
2024/03/14 04:28:23;;;;;;;43.20;31.13;;;;;;;;;;5132266;27;20165;-59
2024/03/14 04:30:53;;;;;;;42.78;30.50;;;;;;;;;;5135994;27;20494;-60
2024/03/14 04:33:19;;;;;;;45.08;31.77;;;;;;;;;;5146062;27;20034;-60
2024/03/14 04:35:49;;;;;;;49.38;30.98;;;;;;;;;;5145484;27;20113;-59
2024/03/14 04:38:15;;;;;;;42.35;30.45;;;;;;;;;;5156663;27;20151;-60
2024/03/14 04:40:43;;;;;;;41.45;30.42;;;;;;;;;;5148912;27;20022;-59
2024/03/14 04:43:09;;;;;;;42.63;31.73;;;;;;;;;;5155105;27;20034;-60
2024/03/14 04:45:35;;;;;;;41.70;30.05;;;;;;;;;;5150859;27;20015;-60
2024/03/14 04:48:04;;;;;;;45.22;31.10;;;;;;;;;;5135770;27;20023;-60
2024/03/14 04:50:36;;;;;;;46.97;31.77;;;;;;;;;;5139736;27;20148;-60
2024/03/14 04:53:04;;;;;;;38.88;29.05;;;;;;;;;;5148373;27;20019;-60
2024/03/14 04:58:37;;;;;;;49.03;30.77;;;;;;;;;;5155105;27;20507;-60
2024/03/14 05:01:03;;;;;;;40.53;29.88;;;;;;;;;;5154989;27;20037;-61
2024/03/14 05:03:29;;;;;;;41.55;30.30;;;;;;;;;;5144750;27;20333;-61
2024/03/14 05:05:56;;;;;;;44.60;31.10;;;;;;;;;;5155282;27;20483;-61
2024/03/14 05:08:22;;;;;;;48.63;32.53;;;;;;;;;;5137350;27;20043;-61
2024/03/14 05:10:48;;;;;;;43.05;30.00;;;;;;;;;;5134199;27;20035;-61
2024/03/14 05:13:14;;;;;;;42.53;29.42;;;;;;;;;;5144815;27;20022;-60
2024/03/14 05:15:40;;;;;;;38.78;29.38;;;;;;;;;;5141325;27;20027;-60
2024/03/14 05:18:08;;;;;;;49.53;31.65;;;;;;;;;;5155777;27;20064;-59
2024/03/14 05:20:34;;;;;;;42.20;29.50;;;;;;;;;;5143293;27;20054;-59
2024/03/14 05:23:00;;;;;;;42.78;30.88;;;;;;;;;;5142748;27;20456;-59
2024/03/14 05:25:26;;;;;;;40.63;30.27;;;;;;;;;;5145633;27;20087;-59
2024/03/14 05:27:52;;;;;;;42.60;29.95;;;;;;;;;;5155443;27;20154;-60
2024/03/14 05:30:18;;;;;;;38.97;30.05;;;;;;;;;;5155036;27;20110;-60
2024/03/14 05:32:45;;;;;;;40.55;29.58;;;;;;;;;;5145297;27;20011;-60
2024/03/14 05:35:11;;;;;;;42.70;29.98;;;;;;;;;;5136917;27;20034;-60
2024/03/14 05:37:37;;;;;;;41.42;29.13;;;;;;;;;;5155408;27;20018;-59
2024/03/14 05:40:04;;;;;;;39.00;28.73;;;;;;;;;;5153455;27;20030;-60
2024/03/14 05:42:31;;;;;;;44.22;30.02;;;;;;;;;;5154224;27;20059;-59
2024/03/14 05:44:57;;;;;;;42.85;29.10;;;;;;;;;;5151710;27;20484;-60
2024/03/14 05:47:27;;;;;;;39.25;27.80;;;;;;;;;;5116389;27;20525;-60
2024/03/14 05:49:53;;;;;;;42.28;29.48;;;;;;;;;;5150815;27;20062;-59
2024/03/14 05:52:19;;;;;;;39.88;28.90;;;;;;;;;;5142239;27;20046;-59
2024/03/14 05:54:45;;;;;;;42.40;30.35;;;;;;;;;;5134404;27;20106;-59
2024/03/14 05:57:12;;;;;;;40.72;29.65;;;;;;;;;;5150694;27;20015;-59
2024/03/14 05:59:38;;;;;;;37.80;28.25;;;;;;;;;;5128282;27;20038;-59
2024/03/14 06:02:07;;;;;;;41.67;29.13;;;;;;;;;;5147050;27;20030;-60
2024/03/14 06:04:34;;;;;;;42.30;30.05;;;;;;;;;;5154910;27;20452;-60
2024/03/14 06:07:01;;;;;;;41.63;30.58;;;;;;;;;;5150857;27;20440;-60
2024/03/14 06:09:39;;;;;;;40.47;30.35;;;;;;;;;;5126035;27;20046;-60
2024/03/14 06:12:06;;;;;;;43.72;29.52;;;;;;;;;;5140577;27;20015;-60
2024/03/14 06:14:32;;;;;;;44.53;29.85;;;;;;;;;;5154303;27;20139;-60
2024/03/14 06:16:59;;;;;;;42.10;28.50;;;;;;;;;;5148396;27;20027;-60
2024/03/14 06:19:31;;;;;;;39.55;29.90;;;;;;;;;;5136086;27;20022;-61
2024/03/14 06:21:57;;;;;;;43.85;29.58;;;;;;;;;;5134573;27;20050;-61
2024/03/14 06:24:24;;;;;;;46.05;32.05;;;;;;;;;;5126413;27;20019;-61
2024/03/14 06:26:50;;;;;;;42.85;29.67;;;;;;;;;;5152910;27;20011;-60
2024/03/14 06:29:16;;;;;;;45.00;30.90;;;;;;;;;;5154366;27;20573;-60
2024/03/14 06:31:42;;;;;;;41.65;28.88;;;;;;;;;;5134426;27;20077;-61
2024/03/14 06:34:09;;;;;;;46.65;31.02;;;;;;;;;;5150325;27;20488;-59
2024/03/14 06:36:36;;;;;;;43.00;30.65;;;;;;;;;;5132420;27;20031;-60
2024/03/14 06:39:07;;;;;;;42.35;29.80;;;;;;;;;;5144805;27;20106;-60
2024/03/14 06:41:37;;;;;;;42.38;29.13;;;;;;;;;;5149879;27;20023;-60
2024/03/14 06:44:03;;;;;;;43.47;31.08;;;;;;;;;;5145140;27;20053;-60
2024/03/14 06:46:29;;;;;;;47.42;32.75;;;;;;;;;;5133994;27;20023;-61
2024/03/14 06:48:58;;;;;;;48.55;34.22;;;;;;;;;;5135783;27;20419;-60
2024/03/14 06:51:24;;;;;;;45.25;31.58;;;;;;;;;;5146595;27;20152;-61
2024/03/14 06:53:50;;;;;;;47.33;32.92;;;;;;;;;;5153320;27;20023;-60
2024/03/14 06:59:19;;;;;;;49.47;33.63;;;;;;;;;;5151778;27;20113;-60
2024/03/14 07:01:46;;;;;;;53.97;33.92;;;;;;;;;;5140405;27;20043;-57
2024/03/14 07:04:26;;;;;;;50.97;33.30;;;;;;;;;;5135346;27;20027;-53
2024/03/14 07:06:52;;;;;;;50.97;33.92;;;;;;;;;;5141273;27;20059;-52
2024/03/14 07:09:17;;;;;;;49.97;34.47;;;;;;;;;;5151995;27;20051;-60
2024/03/14 07:11:57;;;;;;;53.75;36.38;;;;;;;;;;5150687;27;20031;-51
2024/03/14 07:14:23;;;;;;;46.15;35.40;;;;;;;;;;5153981;27;20026;-55
2024/03/14 07:16:49;;;;;;;51.58;36.75;;;;;;;;;;5150532;27;20488;-58
2024/03/14 07:19:21;;;;;;;45.92;33.40;;;;;;;;;;5153977;27;20155;-55
2024/03/14 07:21:49;;;;;;;53.78;36.30;;;;;;;;;;5153973;27;20026;-57
2024/03/14 07:24:17;;;;;;;57.72;39.28;;;;;;;;;;5153791;27;20033;-55
2024/03/14 07:26:43;;;;;;;54.33;39.40;;;;;;;;;;5153363;27;20011;-55
2024/03/14 07:29:09;;;;;;;53.10;38.13;;;;;;;;;;5147698;27;20060;-48
2024/03/14 07:31:35;;;;;;;55.20;39.13;;;;;;;;;;5157731;27;20034;-50
2024/03/14 07:34:10;;;;;;;54.17;37.15;;;;;;;;;;5157681;27;20019;-59
2024/03/14 07:36:38;;;;;;;54.33;37.40;;;;;;;;;;5157681;27;20111;-52
2024/03/14 07:39:05;;;;;;;58.78;37.65;;;;;;;;;;5157968;27;20022;-49
2024/03/14 07:41:31;;;;;;;51.90;37.28;;;;;;;;;;5157733;27;20022;-49
2024/03/14 07:43:58;;;;;;;53.25;37.65;;;;;;;;;;5157650;27;20031;-50
2024/03/14 07:46:24;;;;;;;54.22;39.13;;;;;;;;;;5157813;27;20019;-53
2024/03/14 07:48:51;;;;;;;54.97;38.35;;;;;;;;;;5139103;27;20040;-49
2024/03/14 07:51:17;;;;;;;58.67;38.60;;;;;;;;;;5157781;27;20038;-50
2024/03/14 07:53:44;;;;;;;58.30;38.50;;;;;;;;;;5138632;27;20019;-48
2024/03/14 07:56:12;;;;;;;53.83;37.33;;;;;;;;;;5157048;27;20057;-49
2024/03/14 07:58:44;;;;;;;59.35;40.05;;;;;;;;;;5136826;27;20051;-49
2024/03/14 08:01:22;;;;;;;58.38;38.72;;;;;;;;;;5155313;27;20035;-54
2024/03/14 08:03:48;;;;;;;55.25;37.25;;;;;;;;;;5140334;27;20635;-47
2024/03/14 08:06:20;;;;;;;53.60;37.80;;;;;;;;;;5155355;27;20079;-48
2024/03/14 08:08:48;;;;;;;52.60;37.55;;;;;;;;;;5126771;27;20834;-47
2024/03/14 08:11:16;;;;;;;49.17;37.97;;;;;;;;;;5129803;27;20380;-47
2024/03/14 08:13:42;;;;;;;52.45;38.35;;;;;;;;;;5154250;27;20525;-50
2024/03/14 08:16:14;;;;;;;50.60;36.20;;;;;;;;;;5144185;27;20031;-51
2024/03/14 08:18:41;;;;;;;50.63;36.63;;;;;;;;;;5154334;27;20067;-55
2024/03/14 08:21:07;;;;;;;55.47;39.45;;;;;;;;;;5138355;27;20069;-53
2024/03/14 08:23:34;;;;;;;50.17;37.00;;;;;;;;;;5154528;27;20061;-53
2024/03/14 08:26:00;;;;;;;53.55;38.60;;;;;;;;;;5152201;27;20022;-55
2024/03/14 08:28:29;;;;;;;57.03;37.88;;;;;;;;;;5150460;27;21382;-53
2024/03/14 08:30:57;;;;;;;50.78;36.33;;;;;;;;;;5134287;27;20072;-54
2024/03/14 08:33:23;;;;;;;54.33;37.03;;;;;;;;;;5151070;27;20472;-54
2024/03/14 08:35:50;;;;;;;53.28;38.10;;;;;;;;;;5151486;27;20107;-50
2024/03/14 08:38:16;;;;;;;49.85;35.97;;;;;;;;;;5153956;27;20033;-53
2024/03/14 08:40:43;;;;;;;52.70;37.58;;;;;;;;;;5155180;27;20576;-54
2024/03/14 08:43:25;;;;;;;53.63;36.17;;;;;;;;;;5139767;27;20076;-55
2024/03/14 08:45:52;;;;;;;50.83;37.88;;;;;;;;;;5125769;27;20046;-52
2024/03/14 08:48:18;;;;;;;51.15;35.83;;;;;;;;;;5137025;27;20027;-51
2024/03/14 08:50:44;;;;;;;48.42;36.25;;;;;;;;;;5135998;27;20066;-51
2024/03/14 08:53:12;;;;;;;53.60;37.88;;;;;;;;;;5141475;27;20033;-53
2024/03/14 08:55:45;;;;;;;50.40;36.55;;;;;;;;;;5156189;27;20154;-54
2024/03/14 08:58:12;;;;;;;51.70;39.30;;;;;;;;;;5123919;27;20027;-53
2024/03/14 09:00:50;;;;;;;52.42;37.47;;;;;;;;;;5142393;27;20023;-51
2024/03/14 09:03:18;;;;;;;54.75;39.10;;;;;;;;;;5148621;27;20073;-52
2024/03/14 09:05:44;;;;;;;46.80;35.22;;;;;;;;;;5154744;27;20067;-52
2024/03/14 09:08:18;;;;;;;50.50;36.35;;;;;;;;;;5141708;27;20496;-53
2024/03/14 09:10:45;;;;;;;51.08;35.65;;;;;;;;;;5150757;27;20034;-53
2024/03/14 09:13:11;;;;;;;51.78;37.85;;;;;;;;;;5145820;27;20101;-50
2024/03/14 09:15:37;;;;;;;52.35;36.13;;;;;;;;;;5136237;27;20062;-49
2024/03/14 09:18:06;;;;;;;50.70;34.80;;;;;;;;;;5124748;27;20058;-53
2024/03/14 09:20:32;;;;;;;46.47;34.70;;;;;;;;;;5145806;27;20027;-53
2024/03/14 09:22:58;;;;;;;49.95;35.55;;;;;;;;;;5143560;27;20474;-55
2024/03/14 09:25:28;;;;;;;48.58;35.47;;;;;;;;;;5137643;27;20023;-51
2024/03/14 09:27:59;;;;;;;49.03;36.10;;;;;;;;;;5116637;27;20366;-51
2024/03/14 09:30:25;;;;;;;48.25;33.13;;;;;;;;;;5148107;27;20034;-52
2024/03/14 09:32:53;;;;;;;40.25;28.55;;;;;;;;;;5146163;27;20019;-55
2024/03/14 09:35:28;;;;;;;37.80;28.88;;;;;;;;;;5150920;27;20065;-54
2024/03/14 09:37:54;;;;;;;36.92;26.80;;;;;;;;;;5143693;27;20499;-55
2024/03/14 09:40:23;;;;;;;32.50;23.48;;;;;;;;;;5150363;27;20102;-55
2024/03/14 09:42:56;;;;;;;31.20;20.88;;;;;;;;;;5134325;27;20027;-53
2024/03/14 09:45:23;;;;;;;26.10;18.58;;;;;;;;;;5139849;27;20023;-54
2024/03/14 09:47:49;;;;;;;25.58;17.65;;;;;;;;;;5150693;27;20031;-55
2024/03/14 09:50:18;;;;;;;18.33;14.52;;;;;;;;;;5141247;27;20039;-53
2024/03/14 09:52:47;;;;;;;23.65;16.02;;;;;;;;;;5125166;27;20042;-54
2024/03/14 09:55:13;;;;;;;22.48;15.05;;;;;;;;;;5152799;27;20025;-54
2024/03/14 09:57:40;;;;;;;20.85;14.57;;;;;;;;;;5152732;27;20030;-55
2024/03/14 10:00:11;;;;;;;22.48;15.32;;;;;;;;;;5149472;27;20155;-51
2024/03/14 10:02:37;;;;;;;21.33;15.75;;;;;;;;;;5154605;27;20532;-55
2024/03/14 10:05:03;;;;;;;19.00;13.60;;;;;;;;;;5136775;27;20118;-57
2024/03/14 10:07:29;;;;;;;21.63;13.65;;;;;;;;;;5153013;27;20042;-53
2024/03/14 10:09:56;;;;;;;18.25;14.93;;;;;;;;;;5153498;27;20034;-52
2024/03/14 10:12:23;;;;;;;22.77;15.65;;;;;;;;;;5154935;27;20164;-56
2024/03/14 10:15:12;;;;;;;20.05;15.60;;;;;;;;;;5154756;27;20035;-53
2024/03/14 10:17:40;;;;;;;21.90;16.02;;;;;;;;;;5154758;27;20102;-56
2024/03/14 10:20:14;;;;;;;16.92;14.73;;;;;;;;;;5153990;27;20047;-55
2024/03/14 10:22:50;;;;;;;27.25;17.98;;;;;;;;;;5147060;27;20023;-55
2024/03/14 10:25:17;;;;;;;40.10;18.63;;;;;;;;;;5150662;27;20515;-52
2024/03/14 10:27:48;;;;;;;29.50;18.40;;;;;;;;;;5153371;27;20019;-52
2024/03/14 10:30:14;;;;;;;29.00;18.27;;;;;;;;;;5130960;27;20088;-52
2024/03/14 10:32:40;;;;;;;26.13;18.10;;;;;;;;;;5150043;27;20441;-51
2024/03/14 10:35:10;;;;;;;23.45;16.77;;;;;;;;;;5154526;27;20030;-48
2024/03/14 10:37:49;;;;;;;29.17;16.77;;;;;;;;;;5119833;27;20196;-62
2024/03/14 10:40:18;;;;;;;23.65;16.75;;;;;;;;;;5140390;27;20046;-64
2024/03/14 10:42:48;;;;;;;24.58;17.85;;;;;;;;;;5149705;27;20098;-61
2024/03/14 10:45:16;;;;;;;31.40;18.70;;;;;;;;;;5148673;27;20479;-61
2024/03/14 10:47:42;;;;;;;24.40;17.80;;;;;;;;;;5144031;27;20068;-62
2024/03/14 10:50:16;;;;;;;26.80;18.48;;;;;;;;;;5142800;27;20504;-60
2024/03/14 10:52:43;;;;;;;24.65;18.17;;;;;;;;;;5123623;27;20444;-60
2024/03/14 10:55:10;;;;;;;26.27;18.58;;;;;;;;;;5145689;27;20550;-60
2024/03/14 10:57:38;;;;;;;32.28;21.23;;;;;;;;;;5132637;27;20325;-60
2024/03/14 11:00:13;;;;;;;33.67;22.20;;;;;;;;;;5150185;27;20023;-62
2024/03/14 11:02:41;;;;;;;31.08;22.42;;;;;;;;;;5142237;27;20029;-61
2024/03/14 11:05:09;;;;;;;26.60;19.58;;;;;;;;;;5152180;27;20023;-62
2024/03/14 11:07:35;;;;;;;33.05;21.50;;;;;;;;;;5153715;27;20105;-61
2024/03/14 11:10:08;;;;;;;26.85;18.48;;;;;;;;;;5146006;27;20042;-61
2024/03/14 11:12:34;;;;;;;27.23;18.38;;;;;;;;;;5135199;27;20041;-62
2024/03/14 11:15:07;;;;;;;26.00;17.23;;;;;;;;;;5144298;27;20031;-61
2024/03/14 11:17:35;;;;;;;22.00;16.48;;;;;;;;;;5148139;27;20030;-61
2024/03/14 11:20:09;;;;;;;20.65;15.73;;;;;;;;;;5154165;27;20023;-60
2024/03/14 11:22:37;;;;;;;23.93;16.10;;;;;;;;;;5134298;27;20031;-56
2024/03/14 11:25:05;;;;;;;25.23;16.77;;;;;;;;;;5117721;27;20019;-58
2024/03/14 11:27:33;;;;;;;20.05;14.43;;;;;;;;;;5140894;27;20476;-56
2024/03/14 11:30:00;;;;;;;19.90;14.38;;;;;;;;;;5152433;27;20114;-58
2024/03/14 11:32:31;;;;;;;21.85;15.00;;;;;;;;;;5148542;27;20023;-57
2024/03/14 11:35:17;;;;;;;20.42;13.55;;;;;;;;;;5146951;27;20022;-57
2024/03/14 11:37:53;;;;;;;17.30;13.38;;;;;;;;;;5150293;27;20027;-56
2024/03/14 11:40:20;;;;;;;19.75;13.43;;;;;;;;;;5141717;27;20049;-58
2024/03/14 11:42:54;;;;;;;19.65;13.05;;;;;;;;;;5131436;27;20417;-57
2024/03/14 11:45:20;;;;;;;16.90;12.10;;;;;;;;;;5131279;27;20026;-59
2024/03/14 11:47:47;;;;;;;19.30;12.70;;;;;;;;;;5152364;27;20404;-58
2024/03/14 11:50:13;;;;;;;19.52;12.15;;;;;;;;;;5146687;27;20076;-58
2024/03/14 11:52:45;;;;;;;18.30;13.05;;;;;;;;;;5126130;27;20034;-58
2024/03/14 11:55:13;;;;;;;16.05;12.45;;;;;;;;;;5142922;27;20026;-59
2024/03/14 11:57:44;;;;;;;17.35;13.80;;;;;;;;;;5140180;27;20468;-59
2024/03/14 12:00:10;;;;;;;20.17;14.18;;;;;;;;;;5142645;27;20489;-58
2024/03/14 12:02:37;;;;;;;18.75;13.50;;;;;;;;;;5143616;27;20019;-58
2024/03/14 12:05:05;;;;;;;17.92;12.88;;;;;;;;;;5139365;27;20434;-58
2024/03/14 12:07:33;;;;;;;18.65;11.70;;;;;;;;;;5117998;28;20532;-58
2024/03/14 12:10:00;;;;;;;18.15;11.90;;;;;;;;;;5145288;27;20042;-59
2024/03/14 12:12:26;;;;;;;15.82;11.40;;;;;;;;;;5138432;27;20527;-59
2024/03/14 12:14:56;;;;;;;17.98;11.70;;;;;;;;;;5143718;27;20031;-59
2024/03/14 12:17:22;;;;;;;16.05;10.82;;;;;;;;;;5153132;27;20084;-59
2024/03/14 12:19:53;;;;;;;16.40;10.68;;;;;;;;;;5149354;27;20030;-59
2024/03/14 12:22:21;;;;;;;15.45;10.13;;;;;;;;;;5126579;27;20042;-58
2024/03/14 12:25:00;;;;;;;14.18;9.32;;;;;;;;;;5150874;27;20027;-59
2024/03/14 12:27:27;;;;;;;13.13;9.38;;;;;;;;;;5124002;27;20029;-58
2024/03/14 12:29:53;;;;;;;12.68;9.65;;;;;;;;;;5155387;27;20027;-57
2024/03/14 12:32:19;;;;;;;15.95;10.20;;;;;;;;;;5137720;27;20019;-58
2024/03/14 12:34:46;;;;;;;16.50;9.98;;;;;;;;;;5151642;27;20377;-58
2024/03/14 12:37:12;;;;;;;16.10;11.05;;;;;;;;;;5131228;27;20384;-58
2024/03/14 12:39:46;;;;;;;17.58;11.35;;;;;;;;;;5151679;27;20054;-60
2024/03/14 12:42:12;;;;;;;14.77;10.32;;;;;;;;;;5155805;27;20022;-59
2024/03/14 12:44:42;;;;;;;13.65;9.18;;;;;;;;;;5153046;27;20533;-60
2024/03/14 12:47:09;;;;;;;14.75;10.30;;;;;;;;;;5155691;27;20038;-59
2024/03/14 12:49:35;;;;;;;18.48;10.85;;;;;;;;;;5144936;27;20605;-60
2024/03/14 12:52:02;;;;;;;15.75;10.63;;;;;;;;;;5133809;27;20023;-59
2024/03/14 12:54:35;;;;;;;16.58;11.18;;;;;;;;;;5151932;27;20045;-54
2024/03/14 12:57:02;;;;;;;15.35;10.25;;;;;;;;;;5152722;27;20102;-50
2024/03/14 12:59:30;;;;;;;12.98;10.57;;;;;;;;;;5134404;27;20018;-51
2024/03/14 13:02:00;;;;;;;16.35;12.07;;;;;;;;;;5153035;27;20030;-53
2024/03/14 13:04:26;;;;;;;17.20;12.48;;;;;;;;;;5155326;27;20011;-48
2024/03/14 13:06:59;;;;;;;15.73;11.70;;;;;;;;;;5154573;27;20011;-54
2024/03/14 13:09:25;;;;;;;13.55;10.35;;;;;;;;;;5154234;27;20139;-54
2024/03/14 13:12:03;;;;;;;12.63;10.35;;;;;;;;;;5155584;27;20018;-50
2024/03/14 13:14:29;;;;;;;13.50;10.32;;;;;;;;;;5137221;27;20018;-52
2024/03/14 13:17:04;;;;;;;13.10;10.07;;;;;;;;;;5136695;27;20376;-52
2024/03/14 13:19:35;;;;;;;16.48;10.23;;;;;;;;;;5156053;27;20464;-50
2024/03/14 13:22:04;;;;;;;14.70;10.63;;;;;;;;;;5155362;27;20026;-48
2024/03/14 13:24:30;;;;;;;15.57;10.43;;;;;;;;;;5153579;27;20075;-50
2024/03/14 13:26:58;;;;;;;13.23;9.18;;;;;;;;;;5143587;27;20035;-48
2024/03/14 13:29:25;;;;;;;10.77;9.18;;;;;;;;;;5155635;27;20026;-49
2024/03/14 13:31:52;;;;;;;11.15;8.95;;;;;;;;;;5136879;27;20050;-48
2024/03/14 13:34:18;;;;;;;13.38;9.88;;;;;;;;;;5155458;27;20376;-48
2024/03/14 13:36:46;;;;;;;12.77;8.55;;;;;;;;;;5155341;27;20131;-53
2024/03/14 13:39:12;;;;;;;10.50;8.43;;;;;;;;;;5145867;27;20019;-48
2024/03/14 13:41:42;;;;;;;10.13;8.70;;;;;;;;;;5122252;27;20067;-59
2024/03/14 13:44:10;;;;;;;10.55;8.55;;;;;;;;;;5124478;27;20042;-57
2024/03/14 13:46:41;;;;;;;13.23;8.45;;;;;;;;;;5122904;27;20057;-64
2024/03/14 13:49:11;;;;;;;11.98;7.32;;;;;;;;;;5143170;27;20023;-61
2024/03/14 13:51:37;;;;;;;9.95;7.60;;;;;;;;;;5150280;27;20095;-51
2024/03/14 13:54:03;;;;;;;8.90;6.57;;;;;;;;;;5149738;27;20027;-47
2024/03/14 13:56:30;;;;;;;9.80;7.05;;;;;;;;;;5154518;27;20026;-49
2024/03/14 13:59:02;;;;;;;8.93;7.57;;;;;;;;;;5155594;27;20080;-53
2024/03/14 14:01:32;;;;;;;10.15;7.53;;;;;;;;;;5144744;27;20391;-62
2024/03/14 14:04:02;;;;;;;12.75;7.75;;;;;;;;;;5128913;27;20096;-62
2024/03/14 14:06:28;;;;;;;10.80;7.65;;;;;;;;;;5128919;27;20392;-59
2024/03/14 14:08:55;;;;;;;9.38;5.72;;;;;;;;;;5150297;27;20117;-54
2024/03/14 14:11:23;;;;;;;9.50;5.70;;;;;;;;;;5144913;27;20035;-48
2024/03/14 14:13:49;;;;;;;7.53;5.55;;;;;;;;;;5131788;27;20486;-46
2024/03/14 14:16:21;;;;;;;5.68;4.82;;;;;;;;;;5135670;27;20029;-49
2024/03/14 14:18:48;;;;;;;8.75;5.68;;;;;;;;;;5149331;27;20464;-52
2024/03/14 14:21:14;;;;;;;10.18;5.35;;;;;;;;;;5145616;27;20425;-60
2024/03/14 14:23:40;;;;;;;7.05;5.22;;;;;;;;;;5153826;27;20425;-46
2024/03/14 14:26:08;;;;;;;9.68;5.80;;;;;;;;;;5152381;27;20019;-49
2024/03/14 14:28:34;;;;;;;11.05;6.60;;;;;;;;;;5135736;27;20064;-58
2024/03/14 14:31:01;;;;;;;9.60;5.78;;;;;;;;;;5132225;27;20043;-55
2024/03/14 14:33:27;;;;;;;10.48;6.53;;;;;;;;;;5121967;27;20034;-63